Time;durP1;ratioP1;P1;durP2;ratioP2;P2;SDS_P1;SDS_P2;PMS_P1;PMS_P2;Temp;Humidity;BMP_temperature;BMP_pressure;BME280_temperature;BME280_humidity;BME280_pressure;Samples;Min_cycle;Max_cycle;Signal;HPM_P1;HPM_P2
2023/12/14 00:01:13;;;;;;;21.65;9.05;;;;;;;;;;6140169;28;20133;-86
2023/12/14 00:04:15;;;;;;;24.63;10.15;;;;;;;;;;6165506;28;20107;-86
2023/12/14 00:07:17;;;;;;;44.83;12.97;;;;;;;;;;6169832;28;20057;-86
2023/12/14 00:10:19;;;;;;;53.38;13.45;;;;;;;;;;6154614;28;20110;-87
2023/12/14 00:13:21;;;;;;;38.28;11.32;;;;;;;;;;6158170;28;20053;-86
2023/12/14 00:16:23;;;;;;;32.72;10.75;;;;;;;;;;6159981;28;20488;-86
2023/12/14 00:19:25;;;;;;;25.95;9.70;;;;;;;;;;6149521;28;20042;-86
2023/12/14 00:22:26;;;;;;;25.83;10.85;;;;;;;;;;6157460;28;20408;-86
2023/12/14 00:25:28;;;;;;;25.00;9.25;;;;;;;;;;6157983;28;20429;-86
2023/12/14 00:28:32;;;;;;;32.83;10.60;;;;;;;;;;6186934;28;20038;-86
2023/12/14 00:31:35;;;;;;;27.70;11.38;;;;;;;;;;6167486;28;20054;-86
2023/12/14 00:34:37;;;;;;;36.03;11.63;;;;;;;;;;6145968;28;20063;-86
2023/12/14 00:37:42;;;;;;;23.75;9.35;;;;;;;;;;6177190;28;20060;-87
2023/12/14 00:40:44;;;;;;;18.52;8.05;;;;;;;;;;6195504;28;20038;-87
2023/12/14 00:43:45;;;;;;;16.23;7.90;;;;;;;;;;6188420;28;20046;-86
2023/12/14 00:46:47;;;;;;;39.58;10.98;;;;;;;;;;6169404;28;20045;-86
2023/12/14 00:49:49;;;;;;;58.63;16.05;;;;;;;;;;6175550;28;20050;-86
2023/12/14 00:52:51;;;;;;;89.28;22.80;;;;;;;;;;6179080;28;20053;-86
2023/12/14 00:55:53;;;;;;;27.95;11.18;;;;;;;;;;6158067;28;20125;-86
2023/12/14 00:58:55;;;;;;;57.20;16.65;;;;;;;;;;6169904;28;20090;-85
2023/12/14 01:01:57;;;;;;;28.85;11.15;;;;;;;;;;6172306;28;20051;-85
2023/12/14 01:04:58;;;;;;;25.40;9.90;;;;;;;;;;6169655;28;20057;-86
2023/12/14 01:08:03;;;;;;;24.85;9.88;;;;;;;;;;6155925;28;20529;-86
2023/12/14 01:11:05;;;;;;;28.42;11.32;;;;;;;;;;6164166;28;20042;-86
2023/12/14 01:14:07;;;;;;;21.95;10.10;;;;;;;;;;6148791;28;20137;-86
2023/12/14 01:17:09;;;;;;;22.73;10.60;;;;;;;;;;6145734;28;20057;-86
2023/12/14 01:20:11;;;;;;;25.33;10.98;;;;;;;;;;6150336;28;20392;-86
2023/12/14 01:23:13;;;;;;;22.15;9.63;;;;;;;;;;6147720;28;20112;-85
2023/12/14 01:26:15;;;;;;;24.02;10.43;;;;;;;;;;6167467;28;20053;-86
2023/12/14 01:29:16;;;;;;;24.45;10.65;;;;;;;;;;6142254;28;20077;-85
2023/12/14 01:32:19;;;;;;;25.00;10.65;;;;;;;;;;6180180;28;20097;-86
2023/12/14 01:35:21;;;;;;;22.93;9.50;;;;;;;;;;6178029;28;20054;-86
2023/12/14 01:38:22;;;;;;;24.15;11.00;;;;;;;;;;6162217;28;20046;-86
2023/12/14 01:41:24;;;;;;;24.92;10.73;;;;;;;;;;6164844;28;20042;-86
2023/12/14 01:44:26;;;;;;;18.25;9.60;;;;;;;;;;6171460;28;20046;-86
2023/12/14 01:47:28;;;;;;;22.38;9.68;;;;;;;;;;6183808;28;20504;-86
2023/12/14 01:50:29;;;;;;;35.78;14.20;;;;;;;;;;6176863;28;20053;-86
2023/12/14 01:53:40;;;;;;;29.90;12.15;;;;;;;;;;6181557;28;20069;-86
2023/12/14 01:56:42;;;;;;;23.48;10.20;;;;;;;;;;6157353;28;20046;-86
2023/12/14 01:59:44;;;;;;;26.88;10.35;;;;;;;;;;6151099;28;20057;-86
2023/12/14 02:02:45;;;;;;;20.05;10.38;;;;;;;;;;6150645;28;20571;-86
2023/12/14 02:05:47;;;;;;;52.90;19.58;;;;;;;;;;6165081;28;20053;-86
2023/12/14 02:08:49;;;;;;;48.90;15.18;;;;;;;;;;6168610;28;20130;-86
2023/12/14 02:11:51;;;;;;;28.52;11.35;;;;;;;;;;6172775;28;20133;-85
2023/12/14 02:14:56;;;;;;;23.67;10.55;;;;;;;;;;6166189;28;20049;-85
2023/12/14 02:17:58;;;;;;;34.53;13.73;;;;;;;;;;6173682;28;20042;-86
2023/12/14 02:21:00;;;;;;;28.02;11.57;;;;;;;;;;6181483;28;20047;-87
2023/12/14 02:24:02;;;;;;;26.08;11.15;;;;;;;;;;6180997;28;20437;-87
2023/12/14 02:27:04;;;;;;;21.60;10.63;;;;;;;;;;6145022;28;20053;-86
2023/12/14 02:30:06;;;;;;;24.17;10.90;;;;;;;;;;6140086;28;20394;-86
2023/12/14 02:33:08;;;;;;;21.80;9.85;;;;;;;;;;6161066;28;20607;-86
2023/12/14 02:36:10;;;;;;;21.98;10.45;;;;;;;;;;6174535;28;20283;-86
2023/12/14 02:39:12;;;;;;;24.92;9.95;;;;;;;;;;6167155;28;20093;-86
2023/12/14 02:42:14;;;;;;;24.40;10.13;;;;;;;;;;6172055;28;20046;-86
2023/12/14 02:45:15;;;;;;;19.63;9.00;;;;;;;;;;6160598;28;20695;-86
2023/12/14 02:48:17;;;;;;;24.42;9.43;;;;;;;;;;6157875;28;20428;-86
2023/12/14 02:51:19;;;;;;;27.27;14.30;;;;;;;;;;6157181;28;20056;-86
2023/12/14 02:54:23;;;;;;;27.35;11.45;;;;;;;;;;6148029;28;20050;-86
2023/12/14 02:57:28;;;;;;;24.40;11.00;;;;;;;;;;6148204;28;20042;-88
2023/12/14 03:00:29;;;;;;;27.98;11.15;;;;;;;;;;6150362;28;20051;-87
2023/12/14 03:03:32;;;;;;;21.73;10.80;;;;;;;;;;6144643;28;20049;-87
2023/12/14 03:06:34;;;;;;;28.40;12.38;;;;;;;;;;6181187;28;20144;-87
2023/12/14 03:09:41;;;;;;;34.78;15.70;;;;;;;;;;6158086;28;20038;-87
2023/12/14 03:12:42;;;;;;;22.63;9.93;;;;;;;;;;6178618;28;20134;-87
2023/12/14 03:15:44;;;;;;;22.85;9.82;;;;;;;;;;6187070;28;20107;-87
2023/12/14 03:18:46;;;;;;;25.85;10.35;;;;;;;;;;6153312;28;20050;-87
2023/12/14 03:21:48;;;;;;;18.63;9.70;;;;;;;;;;6146032;28;20050;-87
2023/12/14 03:24:50;;;;;;;21.55;9.98;;;;;;;;;;6147897;28;20140;-87
2023/12/14 03:27:52;;;;;;;24.95;10.98;;;;;;;;;;6159631;28;20049;-86
2023/12/14 03:30:54;;;;;;;25.85;9.32;;;;;;;;;;6149012;28;20449;-87
2023/12/14 03:33:56;;;;;;;20.83;8.73;;;;;;;;;;6183884;28;20101;-86
2023/12/14 03:36:58;;;;;;;19.55;8.32;;;;;;;;;;6176390;28;20038;-87
2023/12/14 03:40:00;;;;;;;19.42;8.85;;;;;;;;;;6215810;28;20056;-87
2023/12/14 03:43:03;;;;;;;25.83;9.13;;;;;;;;;;6185010;28;20050;-87
2023/12/14 03:46:06;;;;;;;17.27;7.85;;;;;;;;;;6192706;28;20057;-87
2023/12/14 03:49:08;;;;;;;18.65;8.73;;;;;;;;;;6174361;28;20103;-86
2023/12/14 03:52:10;;;;;;;20.65;8.27;;;;;;;;;;6172911;28;20046;-87
2023/12/14 03:55:14;;;;;;;21.02;9.10;;;;;;;;;;6170941;28;20053;-87
2023/12/14 03:58:16;;;;;;;17.80;8.35;;;;;;;;;;6172403;28;20046;-88
2023/12/14 04:01:19;;;;;;;22.58;9.25;;;;;;;;;;6145228;28;20042;-87
2023/12/14 04:04:21;;;;;;;22.33;8.90;;;;;;;;;;6161119;28;20081;-87
2023/12/14 04:07:22;;;;;;;23.83;9.30;;;;;;;;;;6157289;28;20101;-88
2023/12/14 04:10:26;;;;;;;21.92;9.02;;;;;;;;;;6167544;28;20185;-87
2023/12/14 04:13:29;;;;;;;27.65;9.65;;;;;;;;;;6169379;28;20038;-86
2023/12/14 04:16:31;;;;;;;21.63;8.50;;;;;;;;;;6178452;28;20088;-87
2023/12/14 04:19:41;;;;;;;24.42;8.38;;;;;;;;;;6164842;28;20049;-87
2023/12/14 04:22:44;;;;;;;19.95;8.40;;;;;;;;;;6156191;28;20096;-87
2023/12/14 04:25:46;;;;;;;24.92;8.13;;;;;;;;;;6180784;28;20151;-87
2023/12/14 04:28:48;;;;;;;21.27;8.85;;;;;;;;;;6162654;28;20046;-88
2023/12/14 04:31:50;;;;;;;21.38;8.32;;;;;;;;;;6146406;28;20034;-87
2023/12/14 04:34:52;;;;;;;28.77;9.30;;;;;;;;;;6179118;28;20056;-87
2023/12/14 04:37:54;;;;;;;27.33;8.65;;;;;;;;;;6173048;28;20616;-87
2023/12/14 04:40:55;;;;;;;29.25;8.85;;;;;;;;;;6162701;28;20054;-87
2023/12/14 04:43:57;;;;;;;27.92;9.13;;;;;;;;;;6163425;28;20058;-87
2023/12/14 04:46:59;;;;;;;20.92;8.43;;;;;;;;;;6151909;28;20177;-87
2023/12/14 04:50:04;;;;;;;21.67;8.20;;;;;;;;;;6163616;28;20057;-89
2023/12/14 04:53:06;;;;;;;25.67;8.77;;;;;;;;;;6140691;28;20505;-87
2023/12/14 04:56:11;;;;;;;22.85;7.97;;;;;;;;;;6148905;28;20090;-87
2023/12/14 04:59:15;;;;;;;27.65;8.90;;;;;;;;;;6151731;28;20137;-85
2023/12/14 05:02:17;;;;;;;26.73;8.65;;;;;;;;;;6169965;28;20061;-85
2023/12/14 05:05:19;;;;;;;27.95;9.23;;;;;;;;;;6147293;28;20532;-85
2023/12/14 05:08:21;;;;;;;28.13;9.10;;;;;;;;;;6180180;28;20421;-86
2023/12/14 05:11:25;;;;;;;24.77;9.45;;;;;;;;;;6155114;28;20049;-86
2023/12/14 05:14:29;;;;;;;22.58;9.43;;;;;;;;;;6157492;28;20042;-86
2023/12/14 05:17:31;;;;;;;20.85;9.10;;;;;;;;;;6163657;28;20061;-87
2023/12/14 05:20:34;;;;;;;24.08;9.02;;;;;;;;;;6160466;28;20042;-87
2023/12/14 05:23:36;;;;;;;21.08;10.07;;;;;;;;;;6184235;28;20038;-88
2023/12/14 05:26:37;;;;;;;24.63;10.35;;;;;;;;;;6164005;28;20050;-86
2023/12/14 05:29:39;;;;;;;25.73;8.70;;;;;;;;;;6164930;28;20077;-87
2023/12/14 05:32:41;;;;;;;30.65;9.93;;;;;;;;;;6165882;28;20453;-86
2023/12/14 05:35:43;;;;;;;26.38;9.60;;;;;;;;;;6145115;28;20290;-86
2023/12/14 05:38:45;;;;;;;25.92;9.90;;;;;;;;;;6184488;28;20532;-86
2023/12/14 05:41:49;;;;;;;25.13;9.30;;;;;;;;;;6177083;28;20626;-86
2023/12/14 05:44:51;;;;;;;24.48;9.25;;;;;;;;;;6162445;28;20278;-86
2023/12/14 05:47:53;;;;;;;24.30;9.40;;;;;;;;;;6158379;28;20053;-87
2023/12/14 05:50:56;;;;;;;20.63;9.23;;;;;;;;;;6164925;28;20051;-87
2023/12/14 05:53:58;;;;;;;21.80;9.02;;;;;;;;;;6176838;28;20050;-87
2023/12/14 05:57:00;;;;;;;27.07;8.70;;;;;;;;;;6180418;28;20046;-86
2023/12/14 06:00:07;;;;;;;28.42;10.00;;;;;;;;;;6171976;28;20149;-87
2023/12/14 06:03:09;;;;;;;22.95;9.05;;;;;;;;;;6144937;28;20067;-86
2023/12/14 06:06:15;;;;;;;22.73;9.13;;;;;;;;;;6159939;28;20057;-86
2023/12/14 06:09:21;;;;;;;24.30;8.48;;;;;;;;;;6149973;28;20076;-87
2023/12/14 06:12:23;;;;;;;21.42;7.93;;;;;;;;;;6163655;28;20047;-86
2023/12/14 06:15:25;;;;;;;27.67;8.98;;;;;;;;;;6162551;28;20042;-87
2023/12/14 06:18:27;;;;;;;27.27;10.10;;;;;;;;;;6154129;28;20046;-86
2023/12/14 06:21:29;;;;;;;19.45;7.90;;;;;;;;;;6159900;28;20587;-86
2023/12/14 06:24:31;;;;;;;19.50;7.68;;;;;;;;;;6162635;28;20056;-87
2023/12/14 06:27:32;;;;;;;25.30;8.75;;;;;;;;;;6155719;28;20100;-86
2023/12/14 06:30:34;;;;;;;19.80;7.90;;;;;;;;;;6159042;28;20144;-87
2023/12/14 06:33:36;;;;;;;20.20;7.32;;;;;;;;;;6187650;28;20074;-87
2023/12/14 06:36:44;;;;;;;15.70;6.63;;;;;;;;;;6206369;28;20249;-88
2023/12/14 06:39:46;;;;;;;18.58;8.32;;;;;;;;;;6161662;28;20049;-86
2023/12/14 06:42:49;;;;;;;20.75;6.80;;;;;;;;;;6187030;28;20057;-87
2023/12/14 06:45:54;;;;;;;15.63;7.10;;;;;;;;;;6164306;28;20050;-87
2023/12/14 06:48:55;;;;;;;18.48;6.05;;;;;;;;;;6177406;28;20061;-87
2023/12/14 06:51:58;;;;;;;16.05;6.30;;;;;;;;;;6163007;28;20096;-87
2023/12/14 06:54:59;;;;;;;13.15;5.30;;;;;;;;;;6163326;28;20054;-87
2023/12/14 06:58:01;;;;;;;9.35;4.60;;;;;;;;;;6183016;28;20046;-88
2023/12/14 07:01:03;;;;;;;9.10;4.45;;;;;;;;;;6178135;28;20505;-88
2023/12/14 07:04:07;;;;;;;13.38;4.45;;;;;;;;;;6135064;28;20062;-88
2023/12/14 07:07:12;;;;;;;9.57;3.38;;;;;;;;;;6136160;28;20050;-89
2023/12/14 07:10:14;;;;;;;11.32;3.38;;;;;;;;;;6187436;28;20057;-88
2023/12/14 07:13:18;;;;;;;9.43;3.30;;;;;;;;;;6162429;28;20289;-88
2023/12/14 07:16:20;;;;;;;8.88;3.55;;;;;;;;;;6171558;28;20128;-88
2023/12/14 07:19:28;;;;;;;9.43;3.80;;;;;;;;;;6152263;28;20507;-88
2023/12/14 07:22:34;;;;;;;9.10;3.50;;;;;;;;;;6166062;28;20057;-88
2023/12/14 07:25:36;;;;;;;10.50;3.40;;;;;;;;;;6149406;28;20051;-88
2023/12/14 07:28:38;;;;;;;8.98;3.83;;;;;;;;;;6158926;28;20045;-88
2023/12/14 07:31:41;;;;;;;10.35;3.10;;;;;;;;;;6159017;28;20065;-87
2023/12/14 07:34:44;;;;;;;9.18;3.60;;;;;;;;;;6149949;28;20053;-88
2023/12/14 07:37:47;;;;;;;8.10;3.10;;;;;;;;;;6165721;28;20101;-88
2023/12/14 07:40:50;;;;;;;12.65;3.67;;;;;;;;;;6160852;28;20139;-89
2023/12/14 07:43:58;;;;;;;8.65;3.42;;;;;;;;;;6139922;28;20050;-89
2023/12/14 07:47:07;;;;;;;14.77;4.18;;;;;;;;;;6164475;28;20456;-88
2023/12/14 07:50:09;;;;;;;6.53;2.67;;;;;;;;;;6141563;28;20054;-88
2023/12/14 07:53:24;;;;;;;;;;;;;;;;;;6152900;28;20055;-88
2023/12/14 07:56:32;;;;;;;6.15;2.95;;;;;;;;;;6122054;28;20402;-88
2023/12/14 07:59:46;;;;;;;6.38;3.35;;;;;;;;;;6099109;28;20052;-88
2023/12/14 08:02:57;;;;;;;5.80;2.58;;;;;;;;;;6137418;28;20129;-88
2023/12/14 08:06:03;;;;;;;4.40;2.10;;;;;;;;;;6137150;28;20046;-88
2023/12/14 08:09:08;;;;;;;3.15;1.90;;;;;;;;;;6183105;28;20054;-88
2023/12/14 08:12:10;;;;;;;4.10;2.20;;;;;;;;;;6152412;28;20054;-89
2023/12/14 08:15:14;;;;;;;3.95;1.70;;;;;;;;;;6135792;28;20438;-89
2023/12/14 08:18:19;;;;;;;3.83;1.73;;;;;;;;;;6147532;28;20101;-88
2023/12/14 08:21:21;;;;;;;6.95;1.90;;;;;;;;;;6141601;28;20042;-87
2023/12/14 08:24:26;;;;;;;3.35;2.05;;;;;;;;;;6149638;28;20042;-87
2023/12/14 08:27:34;;;;;;;4.05;1.60;;;;;;;;;;6141581;28;20050;-88
2023/12/14 08:30:39;;;;;;;4.35;1.50;;;;;;;;;;6169866;28;20041;-89
2023/12/14 08:33:42;;;;;;;2.75;1.85;;;;;;;;;;6199778;28;20042;-89
2023/12/14 08:36:48;;;;;;;6.00;1.80;;;;;;;;;;6184804;28;20053;-88
2023/12/14 08:39:50;;;;;;;5.00;2.10;;;;;;;;;;6156030;28;20046;-88
2023/12/14 08:42:59;;;;;;;4.03;2.08;;;;;;;;;;6151182;28;20141;-89
2023/12/14 08:46:01;;;;;;;3.00;1.45;;;;;;;;;;6176155;28;20046;-88
2023/12/14 08:49:03;;;;;;;3.58;1.70;;;;;;;;;;6150112;28;20107;-89
2023/12/14 08:52:05;;;;;;;4.82;2.10;;;;;;;;;;6171278;28;20432;-87
2023/12/14 08:55:08;;;;;;;3.47;2.00;;;;;;;;;;6153818;28;20046;-88
2023/12/14 08:58:10;;;;;;;4.57;2.08;;;;;;;;;;6162584;28;20042;-88
2023/12/14 09:01:12;;;;;;;5.68;1.92;;;;;;;;;;6181337;28;20050;-88
2023/12/14 09:04:13;;;;;;;5.13;2.00;;;;;;;;;;6154940;28;20600;-88
2023/12/14 09:07:16;;;;;;;5.37;2.37;;;;;;;;;;6163720;28;20055;-88
2023/12/14 09:10:21;;;;;;;5.93;2.10;;;;;;;;;;6150531;28;20124;-87
2023/12/14 09:13:23;;;;;;;6.43;2.30;;;;;;;;;;6142874;28;20061;-87
2023/12/14 09:16:26;;;;;;;12.73;2.58;;;;;;;;;;6165227;28;20046;-88
2023/12/14 09:19:30;;;;;;;5.38;2.45;;;;;;;;;;6146852;28;20046;-89
2023/12/14 09:22:32;;;;;;;6.68;1.70;;;;;;;;;;6183691;28;20046;-88
2023/12/14 09:25:34;;;;;;;4.25;2.17;;;;;;;;;;6172514;28;20057;-88
2023/12/14 09:28:36;;;;;;;3.88;2.03;;;;;;;;;;6198549;28;20073;-89
2023/12/14 09:31:42;;;;;;;5.18;1.65;;;;;;;;;;6180637;28;20417;-87
2023/12/14 09:34:44;;;;;;;4.88;1.73;;;;;;;;;;6179796;28;20069;-87
2023/12/14 09:37:50;;;;;;;4.55;2.13;;;;;;;;;;6160890;28;20057;-87
2023/12/14 09:40:52;;;;;;;2.78;1.40;;;;;;;;;;6146325;28;20117;-89
2023/12/14 09:43:55;;;;;;;3.05;1.52;;;;;;;;;;6127734;28;20050;-89
2023/12/14 09:46:59;;;;;;;5.95;1.42;;;;;;;;;;6157689;28;20056;-88
2023/12/14 09:50:11;;;;;;;3.85;1.85;;;;;;;;;;6142622;28;20078;-88
2023/12/14 09:53:18;;;;;;;7.03;2.70;;;;;;;;;;6138874;28;20046;-86
2023/12/14 09:56:20;;;;;;;5.90;2.47;;;;;;;;;;6132500;28;20137;-88
2023/12/14 09:59:25;;;;;;;6.95;3.35;;;;;;;;;;6165458;28;20058;-90
2023/12/14 10:02:27;;;;;;;4.55;2.20;;;;;;;;;;6153518;28;20573;-87
2023/12/14 10:05:30;;;;;;;;;;;;;;;;;;6142751;28;20046;-88
2023/12/14 10:08:34;;;;;;;4.00;1.70;;;;;;;;;;6178997;28;19993;-89
2023/12/14 10:11:36;;;;;;;3.75;1.40;;;;;;;;;;6167590;28;20053;-87
2023/12/14 10:14:44;;;;;;;4.30;1.97;;;;;;;;;;6151010;28;20046;-87
2023/12/14 10:18:37;;;;;;;;;;;;;;;;;;;;;
2023/12/14 10:21:42;;;;;;;3.97;1.67;;;;;;;;;;6163621;28;20054;-88
2023/12/14 10:24:46;;;;;;;2.60;1.50;;;;;;;;;;6155458;28;20054;-87
2023/12/14 10:27:52;;;;;;;2.72;1.60;;;;;;;;;;6103225;28;20065;-88
2023/12/14 10:30:54;;;;;;;2.92;1.50;;;;;;;;;;6163441;28;20046;-88
2023/12/14 10:34:05;;;;;;;3.40;1.58;;;;;;;;;;6164756;28;20081;-86
2023/12/14 10:37:11;;;;;;;3.55;1.40;;;;;;;;;;6161511;28;20065;-86
2023/12/14 10:40:23;;;;;;;4.95;1.83;;;;;;;;;;6188050;28;20497;-87
2023/12/14 10:43:26;;;;;;;4.03;1.90;;;;;;;;;;6150676;28;20047;-87
2023/12/14 10:46:50;;;;;;;2.92;1.70;;;;;;;;;;6154567;28;20050;-87
2023/12/14 10:50:07;;;;;;;3.97;1.63;;;;;;;;;;6162132;28;20260;-87
2023/12/14 10:53:25;;;;;;;3.17;2.45;;;;;;;;;;6142099;28;20545;-86
2023/12/14 10:56:30;;;;;;;3.67;2.30;;;;;;;;;;6153106;28;20053;-87
2023/12/14 10:59:32;;;;;;;4.80;2.20;;;;;;;;;;6162944;28;20081;-86
2023/12/14 11:02:45;;;;;;;4.88;2.10;;;;;;;;;;6179270;28;20529;-86
2023/12/14 11:05:47;;;;;;;5.18;2.10;;;;;;;;;;6181068;28;20053;-86
2023/12/14 11:09:22;;;;;;;3.80;1.80;;;;;;;;;;6164478;28;20046;-86
2023/12/14 11:12:24;;;;;;;4.35;2.13;;;;;;;;;;6174627;28;20046;-86
2023/12/14 11:15:28;;;;;;;2.55;1.58;;;;;;;;;;6148118;28;20084;-86
2023/12/14 11:18:31;;;;;;;4.15;1.70;;;;;;;;;;6169639;28;20043;-85
2023/12/14 11:21:33;;;;;;;3.45;2.00;;;;;;;;;;6162893;28;20042;-86
2023/12/14 11:24:35;;;;;;;3.38;1.63;;;;;;;;;;6183315;28;20048;-86
2023/12/14 11:27:43;;;;;;;4.13;2.33;;;;;;;;;;6182450;28;20043;-86
2023/12/14 11:30:45;;;;;;;3.22;2.00;;;;;;;;;;6169854;28;20050;-86
2023/12/14 11:33:56;;;;;;;2.53;2.00;;;;;;;;;;6170100;28;20665;-86
2023/12/14 11:36:58;;;;;;;4.07;2.00;;;;;;;;;;6168242;28;20523;-86
2023/12/14 11:40:00;;;;;;;3.33;1.90;;;;;;;;;;6154667;28;20046;-85
2023/12/14 11:43:07;;;;;;;3.75;2.05;;;;;;;;;;6198581;28;20131;-86
2023/12/14 11:46:11;;;;;;;4.15;2.13;;;;;;;;;;6159143;28;20238;-86
2023/12/14 11:49:15;;;;;;;4.07;2.05;;;;;;;;;;6191573;28;20061;-86
2023/12/14 11:52:18;;;;;;;2.75;1.98;;;;;;;;;;6180407;28;20050;-84
2023/12/14 11:55:21;;;;;;;3.05;1.88;;;;;;;;;;6176808;28;20054;-84
2023/12/14 11:58:24;;;;;;;;;;;;;;;;;;6179072;28;20070;-84
2023/12/14 12:01:28;;;;;;;3.20;1.77;;;;;;;;;;6192309;28;19940;-85
2023/12/14 12:04:30;;;;;;;2.38;1.60;;;;;;;;;;6165467;28;20106;-85
2023/12/14 12:07:32;;;;;;;2.53;1.55;;;;;;;;;;6152600;28;20145;-84
2023/12/14 12:10:35;;;;;;;2.92;1.70;;;;;;;;;;6176006;28;20463;-85
2023/12/14 12:13:37;;;;;;;2.90;1.80;;;;;;;;;;6178023;28;20054;-85
2023/12/14 12:16:39;;;;;;;2.10;1.45;;;;;;;;;;6203962;28;20046;-85
2023/12/14 12:19:42;;;;;;;2.90;1.88;;;;;;;;;;6192927;28;20042;-85
2023/12/14 12:22:44;;;;;;;4.00;1.83;;;;;;;;;;6172809;28;20050;-85
2023/12/14 12:25:46;;;;;;;3.63;1.90;;;;;;;;;;6173593;28;20054;-85
2023/12/14 12:28:48;;;;;;;4.68;2.30;;;;;;;;;;6155663;28;20046;-85
2023/12/14 12:31:51;;;;;;;4.35;1.55;;;;;;;;;;6160972;28;20153;-85
2023/12/14 12:34:53;;;;;;;2.35;1.40;;;;;;;;;;6165239;28;20465;-85
2023/12/14 12:37:55;;;;;;;3.90;1.80;;;;;;;;;;6144811;28;20283;-85
2023/12/14 12:40:59;;;;;;;6.03;1.90;;;;;;;;;;6152030;28;20054;-85
2023/12/14 12:44:18;;;;;;;3.70;2.15;;;;;;;;;;6130821;28;20075;-86
2023/12/14 12:47:20;;;;;;;4.15;1.73;;;;;;;;;;6089450;28;20046;-86
2023/12/14 12:50:43;;;;;;;5.35;1.60;;;;;;;;;;6134362;28;20042;-86
2023/12/14 12:53:49;;;;;;;2.17;1.10;;;;;;;;;;6163844;28;20050;-86
2023/12/14 12:56:56;;;;;;;5.00;1.88;;;;;;;;;;6154901;28;20050;-87
2023/12/14 13:00:04;;;;;;;4.30;1.50;;;;;;;;;;6151556;28;20043;-88
2023/12/14 13:03:07;;;;;;;45.45;12.45;;;;;;;;;;6161889;28;20051;-87
2023/12/14 13:06:12;;;;;;;4.53;2.10;;;;;;;;;;6170986;28;20053;-86
2023/12/14 13:09:17;;;;;;;5.35;1.98;;;;;;;;;;6169299;28;20049;-85
2023/12/14 13:12:19;;;;;;;3.05;1.95;;;;;;;;;;6176563;28;20619;-85
2023/12/14 13:15:26;;;;;;;7.47;2.05;;;;;;;;;;6147570;28;20038;-86
2023/12/14 13:18:28;;;;;;;8.02;2.58;;;;;;;;;;6160763;28;20054;-84
2023/12/14 13:21:30;;;;;;;3.53;1.95;;;;;;;;;;6176204;28;20116;-86
2023/12/14 13:24:32;;;;;;;4.25;2.30;;;;;;;;;;6170250;28;20049;-85
2023/12/14 13:27:36;;;;;;;5.45;2.70;;;;;;;;;;6174488;28;20100;-87
2023/12/14 13:30:38;;;;;;;4.95;2.05;;;;;;;;;;6172355;28;20050;-85
2023/12/14 13:33:40;;;;;;;3.53;1.90;;;;;;;;;;6156725;28;20094;-85
2023/12/14 13:36:42;;;;;;;4.30;2.03;;;;;;;;;;6163176;28;20425;-85
2023/12/14 13:39:44;;;;;;;3.58;2.10;;;;;;;;;;6159168;28;20061;-86
2023/12/14 13:42:48;;;;;;;4.22;2.22;;;;;;;;;;6154610;28;20043;-86
2023/12/14 13:46:07;;;;;;;3.45;1.90;;;;;;;;;;6174502;28;20057;-88
2023/12/14 13:49:21;;;;;;;5.93;2.08;;;;;;;;;;6201818;28;20109;-86
2023/12/14 13:52:23;;;;;;;4.38;2.42;;;;;;;;;;6162282;28;20050;-86
2023/12/14 13:55:28;;;;;;;5.53;2.63;;;;;;;;;;6142309;28;20070;-86
2023/12/14 13:58:30;;;;;;;3.30;1.90;;;;;;;;;;6155674;28;20116;-84
2023/12/14 14:01:32;;;;;;;5.28;2.25;;;;;;;;;;6162842;28;20068;-86
2023/12/14 14:04:34;;;;;;;4.85;2.60;;;;;;;;;;6165513;28;20038;-84
2023/12/14 14:07:36;;;;;;;4.40;2.33;;;;;;;;;;6155591;28;20161;-84
2023/12/14 14:10:38;;;;;;;4.90;2.53;;;;;;;;;;6164991;28;20544;-84
2023/12/14 14:13:40;;;;;;;5.18;2.15;;;;;;;;;;6173059;28;20112;-85
2023/12/14 14:16:44;;;;;;;5.25;2.40;;;;;;;;;;6163584;28;20046;-85
2023/12/14 14:19:45;;;;;;;7.03;2.70;;;;;;;;;;6163169;28;20141;-84
2023/12/14 14:22:47;;;;;;;6.40;2.38;;;;;;;;;;6164468;28;20390;-84
2023/12/14 14:25:53;;;;;;;5.38;2.40;;;;;;;;;;6164650;28;20109;-84
2023/12/14 14:28:59;;;;;;;5.82;2.80;;;;;;;;;;6157293;28;20129;-85
2023/12/14 14:32:02;;;;;;;6.28;3.10;;;;;;;;;;6176972;28;20046;-85
2023/12/14 14:35:06;;;;;;;6.72;2.80;;;;;;;;;;6154124;28;20042;-85
2023/12/14 14:38:14;;;;;;;7.35;3.15;;;;;;;;;;6160337;28;20046;-86
2023/12/14 14:41:16;;;;;;;9.65;3.15;;;;;;;;;;6166377;28;20046;-85
2023/12/14 14:44:18;;;;;;;8.25;3.60;;;;;;;;;;6174095;28;20046;-86
2023/12/14 14:47:21;;;;;;;12.52;3.28;;;;;;;;;;6159804;28;20050;-86
2023/12/14 14:50:23;;;;;;;8.10;3.20;;;;;;;;;;6169540;28;20069;-86
2023/12/14 14:53:29;;;;;;;9.77;3.35;;;;;;;;;;6188665;28;20053;-85
2023/12/14 14:56:31;;;;;;;7.38;3.00;;;;;;;;;;6130941;28;20047;-88
2023/12/14 14:59:33;;;;;;;8.70;3.60;;;;;;;;;;6194576;28;20034;-90
2023/12/14 15:02:35;;;;;;;6.35;3.30;;;;;;;;;;6198080;28;20095;-87
2023/12/14 15:05:38;;;;;;;6.07;2.47;;;;;;;;;;6163285;28;20046;-87
2023/12/14 15:08:40;;;;;;;7.20;3.20;;;;;;;;;;6179122;28;20052;-85
2023/12/14 15:11:42;;;;;;;6.75;3.17;;;;;;;;;;6157174;28;20046;-86
2023/12/14 15:14:43;;;;;;;6.53;3.10;;;;;;;;;;6166396;28;20046;-85
2023/12/14 15:17:45;;;;;;;7.63;3.50;;;;;;;;;;6147575;28;20081;-85
2023/12/14 15:20:48;;;;;;;8.48;4.15;;;;;;;;;;6171007;28;20050;-86
2023/12/14 15:23:50;;;;;;;6.75;3.03;;;;;;;;;;6208254;28;20034;-88
2023/12/14 15:26:54;;;;;;;6.72;3.08;;;;;;;;;;6204764;28;20058;-87
2023/12/14 15:29:56;;;;;;;8.00;3.90;;;;;;;;;;6164998;28;20058;-85
2023/12/14 15:32:58;;;;;;;7.88;3.58;;;;;;;;;;6188538;28;20096;-86
2023/12/14 15:36:00;;;;;;;8.95;3.72;;;;;;;;;;6183025;28;20481;-85
2023/12/14 15:39:04;;;;;;;8.95;3.13;;;;;;;;;;6165581;28;20054;-85
2023/12/14 15:42:06;;;;;;;6.85;3.30;;;;;;;;;;6163883;28;20810;-84
2023/12/14 15:45:08;;;;;;;6.28;3.10;;;;;;;;;;6183523;28;20386;-87
2023/12/14 15:48:11;;;;;;;5.88;2.97;;;;;;;;;;6156710;28;20039;-84
2023/12/14 15:51:14;;;;;;;8.02;3.58;;;;;;;;;;6170033;28;20065;-85
2023/12/14 15:54:16;;;;;;;14.60;5.60;;;;;;;;;;6170981;28;20715;-85
2023/12/14 15:57:18;;;;;;;488.33;211.60;;;;;;;;;;6174804;28;20054;-86
2023/12/14 16:00:20;;;;;;;13.13;6.32;;;;;;;;;;6151862;28;20528;-87
2023/12/14 16:03:22;;;;;;;10.95;3.50;;;;;;;;;;6172990;28;20101;-86
2023/12/14 16:06:24;;;;;;;41.95;10.38;;;;;;;;;;6146746;28;20748;-85
2023/12/14 16:09:26;;;;;;;11.63;4.70;;;;;;;;;;6159360;28;20046;-84
2023/12/14 16:12:29;;;;;;;26.63;9.82;;;;;;;;;;6168547;28;20576;-86
2023/12/14 16:15:31;;;;;;;213.15;36.53;;;;;;;;;;6154446;28;20065;-85
2023/12/14 16:18:33;;;;;;;28.45;7.32;;;;;;;;;;6189265;28;20041;-85
2023/12/14 16:21:36;;;;;;;24.40;8.48;;;;;;;;;;6184240;28;20054;-88
2023/12/14 16:24:38;;;;;;;10.40;4.22;;;;;;;;;;6184015;28;20632;-84
2023/12/14 16:27:40;;;;;;;13.85;5.05;;;;;;;;;;6174871;28;20053;-85
2023/12/14 16:30:42;;;;;;;9.50;3.80;;;;;;;;;;6187639;28;20129;-84
2023/12/14 16:33:44;;;;;;;20.83;5.75;;;;;;;;;;6188695;28;20046;-85
2023/12/14 16:36:49;;;;;;;49.97;11.00;;;;;;;;;;6176560;28;20504;-86
2023/12/14 16:39:51;;;;;;;24.50;6.38;;;;;;;;;;6175045;28;20058;-85
2023/12/14 16:42:53;;;;;;;11.27;4.10;;;;;;;;;;6192077;28;20049;-85
2023/12/14 16:45:55;;;;;;;10.23;4.57;;;;;;;;;;6173937;28;20513;-86
2023/12/14 16:48:57;;;;;;;106.75;22.85;;;;;;;;;;6191884;28;21182;-84
2023/12/14 16:52:00;;;;;;;97.70;20.05;;;;;;;;;;6193671;28;20059;-85
2023/12/14 16:55:02;;;;;;;26.95;7.10;;;;;;;;;;6161071;28;21346;-84
2023/12/14 16:58:04;;;;;;;34.33;8.63;;;;;;;;;;6173507;28;20047;-84
2023/12/14 17:01:05;;;;;;;133.68;21.63;;;;;;;;;;6167655;28;20050;-84
2023/12/14 17:04:07;;;;;;;65.78;17.98;;;;;;;;;;6168847;28;20042;-85
2023/12/14 17:07:12;;;;;;;58.00;12.63;;;;;;;;;;6173463;28;20046;-84
2023/12/14 17:10:14;;;;;;;233.52;46.80;;;;;;;;;;6172337;28;20050;-84
2023/12/14 17:13:17;;;;;;;29.38;9.45;;;;;;;;;;6172445;28;20118;-85
2023/12/14 17:16:19;;;;;;;39.78;8.32;;;;;;;;;;6166753;28;20061;-89
2023/12/14 17:19:21;;;;;;;87.47;18.17;;;;;;;;;;6087982;28;20066;-86
2023/12/14 17:22:24;;;;;;;203.73;39.00;;;;;;;;;;6145467;28;20047;-86
2023/12/14 17:25:26;;;;;;;347.65;71.35;;;;;;;;;;6160347;28;20834;-85
2023/12/14 17:28:28;;;;;;;232.38;48.10;;;;;;;;;;6177662;28;20136;-85
2023/12/14 17:31:30;;;;;;;406.15;91.05;;;;;;;;;;6143816;28;20065;-86
2023/12/14 17:34:32;;;;;;;63.25;17.83;;;;;;;;;;6148873;28;20061;-85
2023/12/14 17:37:34;;;;;;;17.67;5.53;;;;;;;;;;6169031;28;20046;-87
2023/12/14 17:40:36;;;;;;;12.88;5.03;;;;;;;;;;6162729;28;20191;-85
2023/12/14 17:43:39;;;;;;;13.57;5.82;;;;;;;;;;6145241;28;20057;-89
2023/12/14 17:47:07;;;;;;;14.95;5.88;;;;;;;;;;6153958;28;20058;-87
2023/12/14 17:50:36;;;;;;;13.13;5.35;;;;;;;;;;6158433;28;20122;-90
2023/12/14 17:53:39;;;;;;;10.40;4.88;;;;;;;;;;6172677;28;20029;-92
2023/12/14 17:56:41;;;;;;;14.63;5.30;;;;;;;;;;6142275;28;20057;-86
2023/12/14 17:59:49;;;;;;;11.93;5.18;;;;;;;;;;6129827;28;20035;-86
2023/12/14 18:03:07;;;;;;;10.15;4.47;;;;;;;;;;6178985;28;20038;-89
2023/12/14 18:06:28;;;;;;;15.13;5.82;;;;;;;;;;6149048;28;20045;-90
2023/12/14 18:09:34;;;;;;;14.60;5.70;;;;;;;;;;6136792;28;20047;-87
2023/12/14 18:12:44;;;;;;;12.57;5.53;;;;;;;;;;6115399;28;20130;-86